Terminal Aerodrome Forecast
Issued by NWS

Home | Current Version | Previous Version | Text Only | Print | Product List | Glossary On
Versions: 1 2 3 4 5 6 7 8 9 10 11 12 13 14 15 16 17
000
FTUS46 KMTR 011122 AAA
TAFMRY
TAF AMD
KMRY 011122Z 0111/0212 09003KT 6SM HZ SKC
     FM011600 33005KT P6SM SKC
     FM020300 24004KT P6SM SKC
     FM020500 16003KT P6SM BKN015
     FM020700 10003KT P6SM OVC007=

USA.gov is the U.S. government's official web portal to all federal, state and local government web resources and services.